TimePST,TemperatureF,Dew PointF,Humidity,Sea Level PressureIn,VisibilityMPH,Wind Direction,Wind SpeedMPH,Gust SpeedMPH,PrecipitationIn,Events,Conditions,WindDirDegrees,DateUTC
12:51 AM,52.0,46.9,83,30.08,10.0,South,3.5,-,N/A,,Clear,170,2012-11-04 07:51:00
1:51 AM,52.0,46.9,83,30.07,10.0,SE,3.5,-,N/A,,Clear,140,2012-11-04 08:51:00
1:51 AM,50.0,46.0,86,30.08,10.0,Calm,Calm,-,N/A,,Clear,0,2012-11-04 09:51:00
2:51 AM,50.0,45.0,83,30.08,10.0,SE,3.5,-,N/A,,Clear,130,2012-11-04 10:51:00
3:51 AM,48.9,44.1,83,30.08,10.0,Calm,Calm,-,N/A,,Clear,0,2012-11-04 11:51:00
4:51 AM,48.0,43.0,83,30.08,10.0,SSE,3.5,-,N/A,,Clear,150,2012-11-04 12:51:00
5:51 AM,48.9,42.1,77,30.08,10.0,SSE,3.5,-,N/A,,Clear,160,2012-11-04 13:51:00
6:51 AM,46.9,43.0,86,30.10,10.0,Calm,Calm,-,N/A,,Clear,0,2012-11-04 14:51:00
7:51 AM,57.9,48.0,70,30.12,10.0,Calm,Calm,-,N/A,,Clear,0,2012-11-04 15:51:00
8:51 AM,66.9,45.0,45,30.12,10.0,SSW,3.5,-,N/A,,Clear,200,2012-11-04 16:51:00
9:51 AM,78.1,39.0,25,30.12,10.0,Calm,Calm,-,N/A,,Clear,0,2012-11-04 17:51:00
10:51 AM,84.9,39.9,20,30.10,10.0,Calm,Calm,-,N/A,,Clear,0,2012-11-04 18:51:00
11:51 AM,90.0,34.0,14,30.08,10.0,Variable,4.6,-,N/A,,Clear,0,2012-11-04 19:51:00
12:51 PM,90.0,43.0,19,30.05,10.0,NW,8.1,-,N/A,,Clear,310,2012-11-04 20:51:00
1:51 PM,87.1,48.0,26,30.04,10.0,WNW,11.5,-,0.00,Rain,Light Rain,300,2012-11-04 21:51:00
2:51 PM,84.0,45.0,25,30.04,10.0,WNW,11.5,-,0.00,,Clear,290,2012-11-04 22:51:00
3:51 PM,75.9,48.9,38,30.05,10.0,NW,6.9,-,N/A,,Clear,310,2012-11-04 23:51:00
4:51 PM,71.1,50.0,47,30.06,10.0,Calm,Calm,-,N/A,,Clear,0,2012-11-05 00:51:00
5:51 PM,66.0,50.0,56,30.07,10.0,Calm,Calm,-,N/A,,Clear,0,2012-11-05 01:51:00
6:51 PM,64.0,48.9,58,30.09,10.0,Calm,Calm,-,N/A,,Clear,0,2012-11-05 02:51:00
7:51 PM,60.1,48.9,67,30.10,8.0,ESE,4.6,-,N/A,,Clear,110,2012-11-05 03:51:00
8:51 PM,57.9,46.0,65,30.10,10.0,South,3.5,-,N/A,,Clear,170,2012-11-05 04:51:00
9:51 PM,57.9,46.0,65,30.10,10.0,SSE,3.5,-,N/A,,Clear,160,2012-11-05 05:51:00
10:51 PM,57.0,46.9,69,30.10,10.0,Calm,Calm,-,N/A,,Clear,0,2012-11-05 06:51:00